createdAt,value
2023-04-20T00:00:48.426Z,76.25
2023-04-20T00:05:49.438Z,76.43
2023-04-20T00:10:49.744Z,76.66
2023-04-20T00:15:48.733Z,76.70
2023-04-20T00:20:47.589Z,76.96
2023-04-20T00:25:46.559Z,76.89
2023-04-20T00:30:47.002Z,77.21
2023-04-20T00:35:45.892Z,76.76
2023-04-20T00:40:49.027Z,77.28
2023-04-20T00:45:49.578Z,77.29
2023-04-20T00:50:49.483Z,76.89
2023-04-20T00:55:49.142Z,76.97
2023-04-20T01:00:49.582Z,77.23
2023-04-20T01:05:50.103Z,76.98
2023-04-20T01:10:49.010Z,77.47
2023-04-20T01:15:49.453Z,77.70
2023-04-20T01:20:48.518Z,78.09
2023-04-20T01:25:48.844Z,79.03
2023-04-20T01:30:48.044Z,79.17
2023-04-20T01:35:47.046Z,79.59
2023-04-20T01:40:45.962Z,80.15
2023-04-20T01:45:46.683Z,80.90
2023-04-20T01:50:45.696Z,80.95
2023-04-20T01:55:45.361Z,81.00
2023-04-20T02:00:47.244Z,81.43
2023-04-20T02:05:46.185Z,81.05
2023-04-20T02:10:45.204Z,80.53
2023-04-20T02:15:46.680Z,80.26
2023-04-20T02:20:46.234Z,79.92
2023-04-20T02:25:45.164Z,79.59
2023-04-20T02:30:44.256Z,79.79
2023-04-20T02:35:45.484Z,79.44
2023-04-20T02:40:44.509Z,79.26
2023-04-20T02:45:43.474Z,79.86
2023-04-20T02:50:44.903Z,80.07
2023-04-20T02:55:49.451Z,79.63
2023-04-20T03:01:24.186Z,80.08
2023-04-20T03:06:33.594Z,80.40
2023-04-20T03:11:33.098Z,79.93
2023-04-20T03:16:32.847Z,79.27
2023-04-20T03:21:33.722Z,79.24
2023-04-20T03:26:32.751Z,79.30
2023-04-20T03:31:46.707Z,78.75
2023-04-20T03:36:47.250Z,79.59
2023-04-20T03:41:46.414Z,79.45
2023-04-20T03:46:45.504Z,79.16
2023-04-20T03:51:44.376Z,79.33
2023-04-20T03:56:46.206Z,79.27
2023-04-20T04:01:46.010Z,80.61
2023-04-20T04:06:45.302Z,79.74
2023-04-20T04:11:45.796Z,80.23
2023-04-20T04:16:46.591Z,79.07
2023-04-20T04:21:46.080Z,78.73
2023-04-20T04:26:48.841Z,77.86
2023-04-20T04:31:50.583Z,78.47
2023-04-20T04:36:52.572Z,77.98
2023-04-20T04:42:00.813Z,78.01
2023-04-20T04:47:12.216Z,77.87
2023-04-20T04:52:11.488Z,77.68
2023-04-20T04:57:12.182Z,76.61
2023-04-20T05:02:13.384Z,75.50
2023-04-20T05:07:14.266Z,75.30
2023-04-20T05:12:14.521Z,74.44
2023-04-20T05:17:13.383Z,74.86
2023-04-20T05:22:12.182Z,74.66
2023-04-20T05:27:11.472Z,74.30
2023-04-20T05:32:11.807Z,74.52
2023-04-20T05:37:10.613Z,74.57
2023-04-20T05:42:09.357Z,75.04
2023-04-20T05:47:08.916Z,74.46
2023-04-20T05:52:09.164Z,73.83
2023-04-20T05:57:07.889Z,73.54
2023-04-20T06:02:07.149Z,73.49
2023-04-20T06:07:06.049Z,72.82
2023-04-20T06:12:06.631Z,72.38
2023-04-20T06:17:05.386Z,72.03
2023-04-20T06:22:07.787Z,72.49
2023-04-20T06:27:07.966Z,73.30
2023-04-20T06:32:06.997Z,70.60
2023-04-20T06:37:07.713Z,69.97
2023-04-20T06:42:09.776Z,69.71
2023-04-20T06:47:08.739Z,70.46
2023-04-20T06:52:07.628Z,69.91
2023-04-20T06:57:07.892Z,69.50
2023-04-20T07:02:06.924Z,69.39
2023-04-20T07:07:05.789Z,70.07
2023-04-20T07:12:04.735Z,69.51
2023-04-20T07:17:04.964Z,69.13
2023-04-20T07:22:03.844Z,70.03
2023-04-20T07:27:02.799Z,70.57
2023-04-20T07:32:01.732Z,70.20
2023-04-20T07:37:03.932Z,70.19
2023-04-20T07:42:04.634Z,69.23
2023-04-20T07:47:04.860Z,69.39
2023-04-20T07:52:15.871Z,70.14
2023-04-20T07:57:16.282Z,69.92
2023-04-20T08:02:15.442Z,69.95
2023-04-20T08:07:15.883Z,70.61
2023-04-20T08:12:15.099Z,69.81
2023-04-20T08:17:14.078Z,70.09
2023-04-20T08:22:13.629Z,70.02
2023-04-20T08:27:13.780Z,69.86
2023-04-20T08:32:12.680Z,69.67
2023-04-20T08:37:11.523Z,68.97
2023-04-20T08:42:10.502Z,68.46
2023-04-20T08:47:11.652Z,67.84
2023-04-20T08:52:11.318Z,66.98
2023-04-20T08:57:10.077Z,66.84
2023-04-20T09:02:14.748Z,67.71
2023-04-20T09:07:21.040Z,66.60
2023-04-20T09:12:21.608Z,64.52
2023-04-20T09:17:33.651Z,63.91
2023-04-20T09:22:33.752Z,61.30
2023-04-20T09:27:32.627Z,57.22
2023-04-20T09:32:33.288Z,56.54
2023-04-20T09:37:32.065Z,53.72
2023-04-20T09:42:33.356Z,52.14
2023-04-20T09:47:36.943Z,51.67
2023-04-20T09:52:38.934Z,51.14
2023-04-20T10:03:43.336Z,51.71
2023-04-20T10:08:42.822Z,51.75
2023-04-20T10:13:41.594Z,52.29
2023-04-20T10:18:41.931Z,52.42
2023-04-20T10:23:49.466Z,51.12
2023-04-20T10:28:48.313Z,49.75
2023-04-20T10:33:53.505Z,48.62
2023-04-20T10:38:53.049Z,45.52
2023-04-20T10:43:52.294Z,45.02
2023-04-20T10:48:54.124Z,41.40
2023-04-20T10:54:00.687Z,40.16
2023-04-20T10:59:08.359Z,38.27
2023-04-20T11:04:09.340Z,36.92
2023-04-20T11:09:20.066Z,36.33
2023-04-20T11:14:19.221Z,35.17
2023-04-20T11:19:26.887Z,31.64
2023-04-20T11:24:27.461Z,31.55
2023-04-20T11:29:31.982Z,31.64
2023-04-20T11:34:33.612Z,31.34
2023-04-20T11:39:33.605Z,28.77
2023-04-20T11:44:33.283Z,27.16
2023-04-20T11:50:03.558Z,27.99
2023-04-20T11:55:02.824Z,26.82
2023-04-20T12:00:01.715Z,27.36
2023-04-20T12:05:03.316Z,27.84
2023-04-20T12:10:02.406Z,26.87
2023-04-20T12:15:01.209Z,26.22
2023-04-20T12:20:02.866Z,27.67
2023-04-20T12:25:01.847Z,26.48
2023-04-20T12:30:00.567Z,27.35
2023-04-20T12:34:59.337Z,26.46
2023-04-20T12:39:59.437Z,28.41
2023-04-20T12:44:58.228Z,28.71
2023-04-20T12:49:57.032Z,38.30
2023-04-20T12:54:59.503Z,40.32
2023-04-20T12:59:58.507Z,42.92
2023-04-20T13:04:58.481Z,44.10
2023-04-20T13:09:57.335Z,44.15
2023-04-20T13:14:57.523Z,45.11
2023-04-20T13:19:56.408Z,46.35
2023-04-20T13:24:55.226Z,47.64
2023-04-20T13:29:54.039Z,48.72
2023-04-20T13:34:54.231Z,50.83
2023-04-20T13:39:53.024Z,48.99
2023-04-20T13:44:52.514Z,45.98
2023-04-20T13:49:51.402Z,41.10
2023-04-20T13:54:51.697Z,39.72
2023-04-20T13:59:51.374Z,36.79
2023-04-20T14:04:50.238Z,34.12
2023-04-20T14:09:49.199Z,32.46
2023-04-20T14:14:49.651Z,33.22
2023-04-20T14:19:49.681Z,33.50
2023-04-20T14:24:49.201Z,31.85
2023-04-20T14:29:49.432Z,31.67
2023-04-20T14:34:48.217Z,31.81
2023-04-20T14:39:47.258Z,29.86
2023-04-20T14:44:47.847Z,30.53
2023-04-20T14:49:48.018Z,30.05
2023-04-20T14:54:46.980Z,29.76
2023-04-20T14:59:45.808Z,29.26
2023-04-20T15:04:44.616Z,29.00
2023-04-20T15:09:44.934Z,28.13
2023-04-20T15:14:43.857Z,27.84
2023-04-20T15:19:46.149Z,29.21
2023-04-20T15:24:46.448Z,28.49
2023-04-20T15:29:45.197Z,30.06
2023-04-20T15:34:43.951Z,30.76
2023-04-20T15:39:42.751Z,32.05
2023-04-20T15:44:42.934Z,33.11
2023-04-20T15:49:41.956Z,34.52
2023-04-20T15:54:41.328Z,35.25
2023-04-20T15:59:43.819Z,36.17
2023-04-20T16:04:42.885Z,37.54
2023-04-20T16:09:43.126Z,39.32
2023-04-20T16:14:43.428Z,41.08
2023-04-20T16:19:42.205Z,42.76
2023-04-20T16:24:41.259Z,44.29
2023-04-20T16:29:40.134Z,45.91
2023-04-20T16:34:41.136Z,46.77
2023-04-20T16:39:39.927Z,48.85
2023-04-20T16:44:41.107Z,49.43
2023-04-20T16:49:42.030Z,49.24
2023-04-20T16:54:41.802Z,49.46
2023-04-20T16:59:40.700Z,50.21
2023-04-20T17:04:39.553Z,50.26
2023-04-20T17:09:39.851Z,51.08
2023-04-20T17:14:38.699Z,50.57
2023-04-20T17:19:40.743Z,51.40
2023-04-20T17:24:41.071Z,51.01
2023-04-20T17:29:40.333Z,51.04
2023-04-20T17:34:40.101Z,54.55
2023-04-20T17:39:40.608Z,55.25
2023-04-20T17:44:39.696Z,55.14
2023-04-20T17:49:41.464Z,56.51
2023-04-20T17:54:41.787Z,58.98
2023-04-20T17:59:41.914Z,59.60
2023-04-20T18:04:41.055Z,60.31
2023-04-20T18:09:41.441Z,60.32
2023-04-20T18:14:42.568Z,60.54
2023-04-20T18:19:41.987Z,60.46
2023-04-20T18:24:42.327Z,61.72
2023-04-20T18:29:42.869Z,61.67
2023-04-20T18:34:41.717Z,62.87
2023-04-20T18:39:41.904Z,65.73
2023-04-20T18:44:40.752Z,69.26
2023-04-20T18:49:39.613Z,72.20
2023-04-20T18:54:38.658Z,70.53
2023-04-20T18:59:39.013Z,71.11
2023-04-20T19:04:37.983Z,71.11
2023-04-20T19:09:36.736Z,70.83
2023-04-20T19:14:35.543Z,70.83
2023-04-20T19:19:38.244Z,71.69
2023-04-20T19:24:37.094Z,72.41
2023-04-20T19:29:37.140Z,72.85
2023-04-20T19:34:38.029Z,73.91
2023-04-20T19:39:37.022Z,73.67
2023-04-20T19:44:35.950Z,73.58
2023-04-20T19:49:34.714Z,74.26
2023-04-20T19:54:35.278Z,73.75
2023-04-20T19:59:34.061Z,74.02
2023-04-20T20:04:33.806Z,73.85
2023-04-20T20:09:34.044Z,73.15
2023-04-20T20:14:32.957Z,73.36
2023-04-20T20:19:31.807Z,73.72
2023-04-20T20:24:30.548Z,74.02
2023-04-20T20:29:30.731Z,75.19
2023-04-20T20:34:30.829Z,76.63
2023-04-20T20:39:29.674Z,75.94
2023-04-20T20:44:33.027Z,76.14
2023-04-20T20:49:31.822Z,76.60
2023-04-20T20:54:30.534Z,76.58
2023-04-20T20:59:30.661Z,78.96
2023-04-20T21:04:30.288Z,79.21
2023-04-20T21:09:29.017Z,77.83
2023-04-20T21:14:27.970Z,78.11
2023-04-20T21:19:28.150Z,76.85
2023-04-20T21:24:26.937Z,79.11
2023-04-20T21:29:25.811Z,81.01
2023-04-20T21:34:24.753Z,80.20
2023-04-20T21:39:24.934Z,80.42
2023-04-20T21:44:23.698Z,79.54
2023-04-20T21:49:22.694Z,82.11
2023-04-20T21:54:21.564Z,81.16
2023-04-20T21:59:21.857Z,81.59
2023-04-20T22:04:20.808Z,82.77
2023-04-20T22:09:19.785Z,82.04
2023-04-20T22:14:18.892Z,82.79
2023-04-20T22:19:19.228Z,83.65
2023-04-20T22:24:18.112Z,83.23
2023-04-20T22:29:19.626Z,82.23
2023-04-20T22:34:20.154Z,81.66
2023-04-20T22:39:19.210Z,81.94
2023-04-20T22:44:18.181Z,81.53
2023-04-20T22:49:17.187Z,81.23
2023-04-20T22:54:17.864Z,80.92
2023-04-20T22:59:17.098Z,82.67
2023-04-20T23:04:16.370Z,80.92
2023-04-20T23:09:20.505Z,78.92
2023-04-20T23:14:22.572Z,78.84
2023-04-20T23:19:21.918Z,79.19
2023-04-20T23:24:27.995Z,77.64
2023-04-20T23:29:28.613Z,77.58
2023-04-20T23:34:27.567Z,77.02
2023-04-20T23:39:26.279Z,77.20
2023-04-20T23:44:25.148Z,77.51
2023-04-20T23:49:25.465Z,79.17
2023-04-20T23:54:24.154Z,81.16
2023-04-20T23:59:22.914Z,82.73
